sensor_id;sensor_type;location;lat;lon;timestamp;temperature;humidity
67027;DHT22;53933;52.142;11.738;2022-10-01T00:00:35;23.30;54.00
67027;DHT22;53933;52.142;11.738;2022-10-01T00:03:01;23.30;54.00
67027;DHT22;53933;52.142;11.738;2022-10-01T00:05:28;23.30;54.50
67027;DHT22;53933;52.142;11.738;2022-10-01T00:07:55;23.30;54.20
67027;DHT22;53933;52.142;11.738;2022-10-01T00:10:21;23.30;54.30
67027;DHT22;53933;52.142;11.738;2022-10-01T00:12:48;23.30;54.10
67027;DHT22;53933;52.142;11.738;2022-10-01T00:15:16;23.30;54.60
67027;DHT22;53933;52.142;11.738;2022-10-01T00:17:46;23.30;54.20
67027;DHT22;53933;52.142;11.738;2022-10-01T00:20:13;23.30;54.00
67027;DHT22;53933;52.142;11.738;2022-10-01T00:22:40;23.30;54.20
67027;DHT22;53933;52.142;11.738;2022-10-01T00:25:07;23.30;54.40
67027;DHT22;53933;52.142;11.738;2022-10-01T00:27:34;23.30;54.10
67027;DHT22;53933;52.142;11.738;2022-10-01T00:30:02;23.30;54.50
67027;DHT22;53933;52.142;11.738;2022-10-01T00:32:30;23.30;54.50
67027;DHT22;53933;52.142;11.738;2022-10-01T00:34:57;23.30;54.90
67027;DHT22;53933;52.142;11.738;2022-10-01T00:37:25;23.30;55.20
67027;DHT22;53933;52.142;11.738;2022-10-01T00:39:52;23.30;54.40
67027;DHT22;53933;52.142;11.738;2022-10-01T00:42:20;23.30;54.20
67027;DHT22;53933;52.142;11.738;2022-10-01T00:44:47;23.30;54.60
67027;DHT22;53933;52.142;11.738;2022-10-01T00:47:21;23.30;55.40
67027;DHT22;53933;52.142;11.738;2022-10-01T00:49:53;23.30;54.30
67027;DHT22;53933;52.142;11.738;2022-10-01T00:52:24;23.30;54.10
67027;DHT22;53933;52.142;11.738;2022-10-01T00:54:56;23.30;54.00
67027;DHT22;53933;52.142;11.738;2022-10-01T00:57:25;23.20;54.20
67027;DHT22;53933;52.142;11.738;2022-10-01T00:59:55;23.30;54.50
67027;DHT22;53933;52.142;11.738;2022-10-01T01:02:23;23.30;54.20
67027;DHT22;53933;52.142;11.738;2022-10-01T01:04:51;23.30;54.40
67027;DHT22;53933;52.142;11.738;2022-10-01T01:07:18;23.30;54.10
67027;DHT22;53933;52.142;11.738;2022-10-01T01:09:47;23.30;54.60
67027;DHT22;53933;52.142;11.738;2022-10-01T01:15:10;23.30;54.30
67027;DHT22;53933;52.142;11.738;2022-10-01T01:17:46;23.30;54.20
67027;DHT22;53933;52.142;11.738;2022-10-01T01:20:43;23.30;54.30
67027;DHT22;53933;52.142;11.738;2022-10-01T01:23:35;23.30;54.50
67027;DHT22;53933;52.142;11.738;2022-10-01T01:26:12;23.30;54.80
67027;DHT22;53933;52.142;11.738;2022-10-01T01:28:47;23.30;54.80
67027;DHT22;53933;52.142;11.738;2022-10-01T01:31:18;23.30;55.20
67027;DHT22;53933;52.142;11.738;2022-10-01T01:33:48;23.30;54.90
67027;DHT22;53933;52.142;11.738;2022-10-01T01:36:19;23.30;54.80
67027;DHT22;53933;52.142;11.738;2022-10-01T01:38:50;23.30;54.60
67027;DHT22;53933;52.142;11.738;2022-10-01T01:41:20;23.30;54.90
67027;DHT22;53933;52.142;11.738;2022-10-01T01:43:51;23.30;55.40
67027;DHT22;53933;52.142;11.738;2022-10-01T01:46:20;23.30;54.90
67027;DHT22;53933;52.142;11.738;2022-10-01T01:48:49;23.30;55.10
67027;DHT22;53933;52.142;11.738;2022-10-01T01:51:23;23.30;54.80
67027;DHT22;53933;52.142;11.738;2022-10-01T01:53:50;23.30;55.20
67027;DHT22;53933;52.142;11.738;2022-10-01T01:56:17;23.30;54.20
67027;DHT22;53933;52.142;11.738;2022-10-01T01:58:44;23.30;54.50
67027;DHT22;53933;52.142;11.738;2022-10-01T02:01:31;23.30;54.70
67027;DHT22;53933;52.142;11.738;2022-10-01T02:03:58;23.20;54.40
67027;DHT22;53933;52.142;11.738;2022-10-01T02:06:32;23.20;54.80
67027;DHT22;53933;52.142;11.738;2022-10-01T02:09:03;23.20;54.70
67027;DHT22;53933;52.142;11.738;2022-10-01T02:11:40;23.20;54.70
67027;DHT22;53933;52.142;11.738;2022-10-01T02:14:17;23.10;54.80
67027;DHT22;53933;52.142;11.738;2022-10-01T02:16:51;23.20;54.40
67027;DHT22;53933;52.142;11.738;2022-10-01T02:19:24;23.10;54.50
67027;DHT22;53933;52.142;11.738;2022-10-01T02:21:58;23.10;54.20
67027;DHT22;53933;52.142;11.738;2022-10-01T02:24:33;23.10;54.90
67027;DHT22;53933;52.142;11.738;2022-10-01T02:27:05;23.10;54.20
67027;DHT22;53933;52.142;11.738;2022-10-01T02:29:34;23.10;54.20
67027;DHT22;53933;52.142;11.738;2022-10-01T02:32:04;23.20;54.30
67027;DHT22;53933;52.142;11.738;2022-10-01T02:34:33;23.10;54.30
67027;DHT22;53933;52.142;11.738;2022-10-01T02:37:00;23.10;54.90
67027;DHT22;53933;52.142;11.738;2022-10-01T02:39:31;23.10;54.60
67027;DHT22;53933;52.142;11.738;2022-10-01T02:41:59;23.10;54.30
67027;DHT22;53933;52.142;11.738;2022-10-01T02:44:30;23.10;54.40
67027;DHT22;53933;52.142;11.738;2022-10-01T02:47:05;23.20;54.40
67027;DHT22;53933;52.142;11.738;2022-10-01T02:49:34;23.20;54.70
67027;DHT22;53933;52.142;11.738;2022-10-01T02:52:08;23.30;54.50
67027;DHT22;53933;52.142;11.738;2022-10-01T02:54:42;23.30;53.90
67027;DHT22;53933;52.142;11.738;2022-10-01T02:57:12;23.00;53.50
67027;DHT22;53933;52.142;11.738;2022-10-01T02:59:54;22.90;53.90
67027;DHT22;53933;52.142;11.738;2022-10-01T03:02:23;22.80;53.90
67027;DHT22;53933;52.142;11.738;2022-10-01T03:04:52;22.80;54.20
67027;DHT22;53933;52.142;11.738;2022-10-01T03:07:19;22.70;53.90
67027;DHT22;53933;52.142;11.738;2022-10-01T03:09:45;22.70;54.20
67027;DHT22;53933;52.142;11.738;2022-10-01T03:12:13;22.60;54.30
67027;DHT22;53933;52.142;11.738;2022-10-01T03:14:41;22.60;54.20
67027;DHT22;53933;52.142;11.738;2022-10-01T03:17:08;22.50;54.10
67027;DHT22;53933;52.142;11.738;2022-10-01T03:19:36;22.50;54.20
67027;DHT22;53933;52.142;11.738;2022-10-01T03:22:04;22.40;54.70
67027;DHT22;53933;52.142;11.738;2022-10-01T03:24:30;22.40;54.00
67027;DHT22;53933;52.142;11.738;2022-10-01T03:26:57;22.30;54.20
67027;DHT22;53933;52.142;11.738;2022-10-01T03:29:24;22.30;54.40
67027;DHT22;53933;52.142;11.738;2022-10-01T03:31:52;22.30;54.00
67027;DHT22;53933;52.142;11.738;2022-10-01T03:34:19;22.30;54.20
67027;DHT22;53933;52.142;11.738;2022-10-01T03:36:47;22.20;54.40
67027;DHT22;53933;52.142;11.738;2022-10-01T03:39:14;22.20;54.20
67027;DHT22;53933;52.142;11.738;2022-10-01T03:41:41;22.20;54.30
67027;DHT22;53933;52.142;11.738;2022-10-01T03:44:08;22.20;54.40
67027;DHT22;53933;52.142;11.738;2022-10-01T03:46:35;22.20;54.40
67027;DHT22;53933;52.142;11.738;2022-10-01T03:49:02;22.20;54.40
67027;DHT22;53933;52.142;11.738;2022-10-01T03:51:29;22.20;54.40
67027;DHT22;53933;52.142;11.738;2022-10-01T03:53:58;22.10;54.20
67027;DHT22;53933;52.142;11.738;2022-10-01T03:56:24;22.10;54.40
67027;DHT22;53933;52.142;11.738;2022-10-01T03:58:51;22.10;54.60
67027;DHT22;53933;52.142;11.738;2022-10-01T04:01:18;22.10;54.40
67027;DHT22;53933;52.142;11.738;2022-10-01T04:03:44;22.10;54.50
67027;DHT22;53933;52.142;11.738;2022-10-01T04:06:12;22.10;54.50
67027;DHT22;53933;52.142;11.738;2022-10-01T04:08:38;22.00;54.40
67027;DHT22;53933;52.142;11.738;2022-10-01T04:11:06;22.00;54.50
67027;DHT22;53933;52.142;11.738;2022-10-01T04:13:34;22.10;54.30
67027;DHT22;53933;52.142;11.738;2022-10-01T04:16:01;22.00;54.50
67027;DHT22;53933;52.142;11.738;2022-10-01T04:18:28;22.00;54.80
67027;DHT22;53933;52.142;11.738;2022-10-01T04:20:54;22.00;54.50
67027;DHT22;53933;52.142;11.738;2022-10-01T04:23:21;22.10;54.50
67027;DHT22;53933;52.142;11.738;2022-10-01T04:25:48;22.10;54.40
67027;DHT22;53933;52.142;11.738;2022-10-01T04:28:16;22.00;54.30
67027;DHT22;53933;52.142;11.738;2022-10-01T04:30:44;22.00;54.80
67027;DHT22;53933;52.142;11.738;2022-10-01T04:33:13;22.00;54.60
67027;DHT22;53933;52.142;11.738;2022-10-01T04:35:40;22.00;55.00
67027;DHT22;53933;52.142;11.738;2022-10-01T04:38:11;22.00;54.80
67027;DHT22;53933;52.142;11.738;2022-10-01T04:40:38;22.00;55.00
67027;DHT22;53933;52.142;11.738;2022-10-01T04:43:06;22.00;54.70
67027;DHT22;53933;52.142;11.738;2022-10-01T04:45:35;22.00;54.80
67027;DHT22;53933;52.142;11.738;2022-10-01T04:48:02;22.00;54.60
67027;DHT22;53933;52.142;11.738;2022-10-01T04:50:29;22.00;54.80
67027;DHT22;53933;52.142;11.738;2022-10-01T04:52:56;22.00;54.80
67027;DHT22;53933;52.142;11.738;2022-10-01T04:55:23;22.00;54.90
67027;DHT22;53933;52.142;11.738;2022-10-01T04:57:50;21.90;55.00
67027;DHT22;53933;52.142;11.738;2022-10-01T05:00:18;22.00;55.80
67027;DHT22;53933;52.142;11.738;2022-10-01T05:02:48;22.10;55.10
67027;DHT22;53933;52.142;11.738;2022-10-01T05:05:16;22.30;54.60
67027;DHT22;53933;52.142;11.738;2022-10-01T05:07:43;22.40;54.30
67027;DHT22;53933;52.142;11.738;2022-10-01T05:10:12;22.40;54.40
67027;DHT22;53933;52.142;11.738;2022-10-01T05:12:39;22.30;54.20
67027;DHT22;53933;52.142;11.738;2022-10-01T05:15:07;22.40;54.90
67027;DHT22;53933;52.142;11.738;2022-10-01T05:17:34;22.40;54.40
67027;DHT22;53933;52.142;11.738;2022-10-01T05:20:04;22.30;54.20
67027;DHT22;53933;52.142;11.738;2022-10-01T05:22:31;22.40;54.40
67027;DHT22;53933;52.142;11.738;2022-10-01T05:24:58;22.40;54.40
67027;DHT22;53933;52.142;11.738;2022-10-01T05:27:25;22.40;54.30
67027;DHT22;53933;52.142;11.738;2022-10-01T05:29:52;22.50;54.60
67027;DHT22;53933;52.142;11.738;2022-10-01T05:32:19;22.40;53.90
67027;DHT22;53933;52.142;11.738;2022-10-01T05:34:45;22.40;54.40
67027;DHT22;53933;52.142;11.738;2022-10-01T05:37:14;22.40;54.30
67027;DHT22;53933;52.142;11.738;2022-10-01T05:39:41;22.50;54.50
67027;DHT22;53933;52.142;11.738;2022-10-01T05:42:07;22.40;54.40
67027;DHT22;53933;52.142;11.738;2022-10-01T05:44:34;22.40;54.10
67027;DHT22;53933;52.142;11.738;2022-10-01T05:47:04;22.40;54.50
67027;DHT22;53933;52.142;11.738;2022-10-01T05:49:31;22.40;55.30
67027;DHT22;53933;52.142;11.738;2022-10-01T05:51:59;22.40;55.20
67027;DHT22;53933;52.142;11.738;2022-10-01T05:54:27;22.50;54.70
67027;DHT22;53933;52.142;11.738;2022-10-01T05:56:54;22.50;54.30
67027;DHT22;53933;52.142;11.738;2022-10-01T05:59:21;22.40;54.40
67027;DHT22;53933;52.142;11.738;2022-10-01T06:01:48;22.40;54.70
67027;DHT22;53933;52.142;11.738;2022-10-01T06:04:15;22.30;54.70
67027;DHT22;53933;52.142;11.738;2022-10-01T06:06:41;22.30;54.90
67027;DHT22;53933;52.142;11.738;2022-10-01T06:09:08;22.30;55.00
67027;DHT22;53933;52.142;11.738;2022-10-01T06:11:37;22.40;55.40
67027;DHT22;53933;52.142;11.738;2022-10-01T06:14:03;22.50;55.20
67027;DHT22;53933;52.142;11.738;2022-10-01T06:16:30;22.50;54.80
67027;DHT22;53933;52.142;11.738;2022-10-01T06:18:57;22.50;55.10
67027;DHT22;53933;52.142;11.738;2022-10-01T06:21:24;22.40;54.90
67027;DHT22;53933;52.142;11.738;2022-10-01T06:23:51;22.40;55.10
67027;DHT22;53933;52.142;11.738;2022-10-01T06:26:18;22.40;55.20
67027;DHT22;53933;52.142;11.738;2022-10-01T06:28:49;22.50;55.40
67027;DHT22;53933;52.142;11.738;2022-10-01T06:31:16;22.60;55.00
67027;DHT22;53933;52.142;11.738;2022-10-01T06:33:42;22.60;55.10
67027;DHT22;53933;52.142;11.738;2022-10-01T06:36:09;22.50;55.00
67027;DHT22;53933;52.142;11.738;2022-10-01T06:38:36;22.60;55.60
67027;DHT22;53933;52.142;11.738;2022-10-01T06:41:03;22.40;54.80
67027;DHT22;53933;52.142;11.738;2022-10-01T06:43:31;22.40;55.80
67027;DHT22;53933;52.142;11.738;2022-10-01T06:46:01;22.30;54.80
67027;DHT22;53933;52.142;11.738;2022-10-01T06:48:28;22.10;55.40
67027;DHT22;53933;52.142;11.738;2022-10-01T06:50:56;22.20;55.30
67027;DHT22;53933;52.142;11.738;2022-10-01T06:53:25;22.10;55.70
67027;DHT22;53933;52.142;11.738;2022-10-01T06:55:51;22.00;55.40
67027;DHT22;53933;52.142;11.738;2022-10-01T06:58:19;22.00;55.10
67027;DHT22;53933;52.142;11.738;2022-10-01T07:00:47;22.00;55.80
67027;DHT22;53933;52.142;11.738;2022-10-01T07:03:17;22.10;56.90
67027;DHT22;53933;52.142;11.738;2022-10-01T07:05:44;22.30;56.90
67027;DHT22;53933;52.142;11.738;2022-10-01T07:08:12;22.50;56.70
67027;DHT22;53933;52.142;11.738;2022-10-01T07:10:39;22.70;56.90
67027;DHT22;53933;52.142;11.738;2022-10-01T07:13:06;22.80;56.40
67027;DHT22;53933;52.142;11.738;2022-10-01T07:15:34;22.90;56.90
67027;DHT22;53933;52.142;11.738;2022-10-01T07:18:00;23.00;56.70
67027;DHT22;53933;52.142;11.738;2022-10-01T07:20:29;23.00;56.70
67027;DHT22;53933;52.142;11.738;2022-10-01T07:23:00;23.10;56.90
67027;DHT22;53933;52.142;11.738;2022-10-01T07:25:28;23.10;56.80
67027;DHT22;53933;52.142;11.738;2022-10-01T07:27:55;23.20;56.90
67027;DHT22;53933;52.142;11.738;2022-10-01T07:30:22;23.20;56.60
67027;DHT22;53933;52.142;11.738;2022-10-01T07:32:49;23.20;56.60
67027;DHT22;53933;52.142;11.738;2022-10-01T07:35:16;23.30;56.80
67027;DHT22;53933;52.142;11.738;2022-10-01T07:37:45;23.30;56.70
67027;DHT22;53933;52.142;11.738;2022-10-01T07:40:12;23.30;56.60
67027;DHT22;53933;52.142;11.738;2022-10-01T07:42:40;23.30;56.60
67027;DHT22;53933;52.142;11.738;2022-10-01T07:45:08;23.40;56.70
67027;DHT22;53933;52.142;11.738;2022-10-01T07:47:35;23.40;56.60
67027;DHT22;53933;52.142;11.738;2022-10-01T07:50:03;23.40;56.70
67027;DHT22;53933;52.142;11.738;2022-10-01T07:52:31;23.40;56.60
67027;DHT22;53933;52.142;11.738;2022-10-01T07:54:59;23.40;56.70
67027;DHT22;53933;52.142;11.738;2022-10-01T07:57:26;23.40;56.70
67027;DHT22;53933;52.142;11.738;2022-10-01T07:59:53;23.40;56.60
67027;DHT22;53933;52.142;11.738;2022-10-01T08:02:19;23.50;56.70
67027;DHT22;53933;52.142;11.738;2022-10-01T08:04:46;23.50;56.70
67027;DHT22;53933;52.142;11.738;2022-10-01T08:07:30;23.50;56.90
67027;DHT22;53933;52.142;11.738;2022-10-01T08:09:58;23.50;57.70
67027;DHT22;53933;52.142;11.738;2022-10-01T08:12:25;23.50;57.60
67027;DHT22;53933;52.142;11.738;2022-10-01T08:14:54;23.50;57.20
67027;DHT22;53933;52.142;11.738;2022-10-01T08:17:21;23.50;57.20
67027;DHT22;53933;52.142;11.738;2022-10-01T08:19:48;23.50;57.30
67027;DHT22;53933;52.142;11.738;2022-10-01T08:22:15;23.50;57.10
67027;DHT22;53933;52.142;11.738;2022-10-01T08:24:42;23.50;57.20
67027;DHT22;53933;52.142;11.738;2022-10-01T08:27:10;23.50;57.50
67027;DHT22;53933;52.142;11.738;2022-10-01T08:29:37;23.50;57.20
67027;DHT22;53933;52.142;11.738;2022-10-01T08:32:07;23.50;57.80
67027;DHT22;53933;52.142;11.738;2022-10-01T08:34:34;23.50;57.30
67027;DHT22;53933;52.142;11.738;2022-10-01T08:37:01;23.60;57.50
67027;DHT22;53933;52.142;11.738;2022-10-01T08:39:27;23.50;57.40
67027;DHT22;53933;52.142;11.738;2022-10-01T08:42:00;23.50;57.60
67027;DHT22;53933;52.142;11.738;2022-10-01T08:44:33;23.60;57.50
67027;DHT22;53933;52.142;11.738;2022-10-01T08:47:05;23.60;57.80
67027;DHT22;53933;52.142;11.738;2022-10-01T08:49:36;23.60;57.70
67027;DHT22;53933;52.142;11.738;2022-10-01T08:52:12;23.60;57.80
67027;DHT22;53933;52.142;11.738;2022-10-01T08:54:45;23.60;57.70
67027;DHT22;53933;52.142;11.738;2022-10-01T08:57:15;23.60;58.30
67027;DHT22;53933;52.142;11.738;2022-10-01T08:59:47;23.60;58.20
67027;DHT22;53933;52.142;11.738;2022-10-01T09:02:20;23.60;58.30
67027;DHT22;53933;52.142;11.738;2022-10-01T09:04:50;23.60;57.80
67027;DHT22;53933;52.142;11.738;2022-10-01T09:07:29;23.60;58.00
67027;DHT22;53933;52.142;11.738;2022-10-01T09:10:08;23.60;57.80
67027;DHT22;53933;52.142;11.738;2022-10-01T09:12:42;23.60;58.00
67027;DHT22;53933;52.142;11.738;2022-10-01T09:15:19;23.60;57.90
67027;DHT22;53933;52.142;11.738;2022-10-01T09:17:55;23.60;57.90
67027;DHT22;53933;52.142;11.738;2022-10-01T09:20:26;23.60;57.70
67027;DHT22;53933;52.142;11.738;2022-10-01T09:23:09;23.60;57.70
67027;DHT22;53933;52.142;11.738;2022-10-01T09:25:42;23.60;57.80
67027;DHT22;53933;52.142;11.738;2022-10-01T09:28:13;23.60;57.80
67027;DHT22;53933;52.142;11.738;2022-10-01T09:30:43;23.60;57.70
67027;DHT22;53933;52.142;11.738;2022-10-01T09:33:14;23.60;57.70
67027;DHT22;53933;52.142;11.738;2022-10-01T09:35:44;23.60;57.70
67027;DHT22;53933;52.142;11.738;2022-10-01T09:38:17;23.60;57.80
67027;DHT22;53933;52.142;11.738;2022-10-01T09:40:51;23.60;57.80
67027;DHT22;53933;52.142;11.738;2022-10-01T09:43:19;23.60;57.70
67027;DHT22;53933;52.142;11.738;2022-10-01T09:45:49;23.60;57.80
67027;DHT22;53933;52.142;11.738;2022-10-01T09:48:26;23.60;57.90
67027;DHT22;53933;52.142;11.738;2022-10-01T09:50:58;23.60;57.80
67027;DHT22;53933;52.142;11.738;2022-10-01T09:53:33;23.60;57.90
67027;DHT22;53933;52.142;11.738;2022-10-01T09:56:07;23.60;57.90
67027;DHT22;53933;52.142;11.738;2022-10-01T09:58:38;23.60;57.80
67027;DHT22;53933;52.142;11.738;2022-10-01T10:01:17;23.60;57.90
67027;DHT22;53933;52.142;11.738;2022-10-01T10:03:52;23.60;57.90
67027;DHT22;53933;52.142;11.738;2022-10-01T10:06:22;23.60;57.80
67027;DHT22;53933;52.142;11.738;2022-10-01T10:08:52;23.60;57.90
67027;DHT22;53933;52.142;11.738;2022-10-01T10:11:21;23.60;57.90
67027;DHT22;53933;52.142;11.738;2022-10-01T10:13:49;23.60;57.80
67027;DHT22;53933;52.142;11.738;2022-10-01T10:16:19;23.60;57.80
67027;DHT22;53933;52.142;11.738;2022-10-01T10:18:52;23.60;57.80
67027;DHT22;53933;52.142;11.738;2022-10-01T10:21:23;23.60;57.90
67027;DHT22;53933;52.142;11.738;2022-10-01T10:23:52;23.60;57.80
67027;DHT22;53933;52.142;11.738;2022-10-01T10:26:20;23.60;57.90
67027;DHT22;53933;52.142;11.738;2022-10-01T10:28:50;23.60;57.90
67027;DHT22;53933;52.142;11.738;2022-10-01T10:31:20;23.60;57.90
67027;DHT22;53933;52.142;11.738;2022-10-01T10:33:50;23.60;58.00
67027;DHT22;53933;52.142;11.738;2022-10-01T10:36:18;23.60;58.00
67027;DHT22;53933;52.142;11.738;2022-10-01T10:38:49;23.60;57.90
67027;DHT22;53933;52.142;11.738;2022-10-01T10:41:19;23.60;58.00
67027;DHT22;53933;52.142;11.738;2022-10-01T10:43:52;23.60;58.00
67027;DHT22;53933;52.142;11.738;2022-10-01T10:46:23;23.60;58.20
67027;DHT22;53933;52.142;11.738;2022-10-01T10:48:58;23.60;58.40
67027;DHT22;53933;52.142;11.738;2022-10-01T10:51:29;23.60;58.40
67027;DHT22;53933;52.142;11.738;2022-10-01T10:54:20;23.60;58.50
67027;DHT22;53933;52.142;11.738;2022-10-01T10:56:57;23.60;58.60
67027;DHT22;53933;52.142;11.738;2022-10-01T10:59:27;23.60;58.60
67027;DHT22;53933;52.142;11.738;2022-10-01T11:01:57;23.60;58.70
67027;DHT22;53933;52.142;11.738;2022-10-01T11:04:30;23.60;58.70
67027;DHT22;53933;52.142;11.738;2022-10-01T11:06:59;23.60;58.60
67027;DHT22;53933;52.142;11.738;2022-10-01T11:09:30;23.60;58.60
67027;DHT22;53933;52.142;11.738;2022-10-01T11:12:08;23.60;58.70
67027;DHT22;53933;52.142;11.738;2022-10-01T11:14:51;23.60;58.80
67027;DHT22;53933;52.142;11.738;2022-10-01T11:18:08;23.60;58.80
67027;DHT22;53933;52.142;11.738;2022-10-01T11:20:40;23.60;58.80
67027;DHT22;53933;52.142;11.738;2022-10-01T11:23:51;23.60;58.80
67027;DHT22;53933;52.142;11.738;2022-10-01T11:26:28;23.70;58.80
67027;DHT22;53933;52.142;11.738;2022-10-01T11:29:07;23.70;58.80
67027;DHT22;53933;52.142;11.738;2022-10-01T11:31:39;23.60;58.70
67027;DHT22;53933;52.142;11.738;2022-10-01T11:34:27;23.70;58.80
67027;DHT22;53933;52.142;11.738;2022-10-01T11:37:04;23.70;58.80
67027;DHT22;53933;52.142;11.738;2022-10-01T11:39:39;23.70;58.80
67027;DHT22;53933;52.142;11.738;2022-10-01T11:42:09;23.70;58.90
67027;DHT22;53933;52.142;11.738;2022-10-01T11:44:41;23.70;58.80
67027;DHT22;53933;52.142;11.738;2022-10-01T11:47:12;23.70;58.90
67027;DHT22;53933;52.142;11.738;2022-10-01T11:49:46;23.60;58.80
67027;DHT22;53933;52.142;11.738;2022-10-01T11:52:20;23.70;58.90
67027;DHT22;53933;52.142;11.738;2022-10-01T11:54:57;23.70;58.90
67027;DHT22;53933;52.142;11.738;2022-10-01T11:57:50;23.60;58.90
67027;DHT22;53933;52.142;11.738;2022-10-01T12:00:35;23.70;58.90
67027;DHT22;53933;52.142;11.738;2022-10-01T12:03:05;23.60;58.90
67027;DHT22;53933;52.142;11.738;2022-10-01T12:05:39;23.60;58.90
67027;DHT22;53933;52.142;11.738;2022-10-01T12:08:13;23.60;58.90
67027;DHT22;53933;52.142;11.738;2022-10-01T12:10:45;23.70;59.00
67027;DHT22;53933;52.142;11.738;2022-10-01T12:13:20;23.70;59.00
67027;DHT22;53933;52.142;11.738;2022-10-01T12:15:52;23.70;58.90
67027;DHT22;53933;52.142;11.738;2022-10-01T12:18:23;23.80;58.80
67027;DHT22;53933;52.142;11.738;2022-10-01T12:20:56;23.80;58.70
67027;DHT22;53933;52.142;11.738;2022-10-01T12:23:27;23.90;58.50
67027;DHT22;53933;52.142;11.738;2022-10-01T12:26:00;23.90;58.30
67027;DHT22;53933;52.142;11.738;2022-10-01T12:28:32;24.00;58.20
67027;DHT22;53933;52.142;11.738;2022-10-01T12:31:05;24.00;58.80
67027;DHT22;53933;52.142;11.738;2022-10-01T12:33:53;24.10;58.00
67027;DHT22;53933;52.142;11.738;2022-10-01T12:36:33;24.10;57.90
67027;DHT22;53933;52.142;11.738;2022-10-01T12:39:11;24.10;57.80
67027;DHT22;53933;52.142;11.738;2022-10-01T12:41:47;24.20;57.80
67027;DHT22;53933;52.142;11.738;2022-10-01T12:44:34;24.20;57.70
67027;DHT22;53933;52.142;11.738;2022-10-01T12:47:13;24.20;57.70
67027;DHT22;53933;52.142;11.738;2022-10-01T12:49:47;24.20;57.70
67027;DHT22;53933;52.142;11.738;2022-10-01T12:52:21;24.20;57.70
67027;DHT22;53933;52.142;11.738;2022-10-01T12:55:08;24.20;57.80
67027;DHT22;53933;52.142;11.738;2022-10-01T12:57:45;24.20;57.90
67027;DHT22;53933;52.142;11.738;2022-10-01T13:00:18;24.20;57.90
67027;DHT22;53933;52.142;11.738;2022-10-01T13:05:53;24.10;58.00
67027;DHT22;53933;52.142;11.738;2022-10-01T13:08:35;24.10;58.30
67027;DHT22;53933;52.142;11.738;2022-10-01T13:11:13;24.10;58.10
67027;DHT22;53933;52.142;11.738;2022-10-01T13:13:47;24.10;58.00
67027;DHT22;53933;52.142;11.738;2022-10-01T13:16:19;24.10;58.10
67027;DHT22;53933;52.142;11.738;2022-10-01T13:18:53;24.10;58.10
67027;DHT22;53933;52.142;11.738;2022-10-01T13:21:28;24.10;58.20
67027;DHT22;53933;52.142;11.738;2022-10-01T13:24:01;24.10;58.20
67027;DHT22;53933;52.142;11.738;2022-10-01T13:26:32;24.10;58.30
67027;DHT22;53933;52.142;11.738;2022-10-01T13:29:09;24.00;58.30
67027;DHT22;53933;52.142;11.738;2022-10-01T13:31:39;24.10;58.30
67027;DHT22;53933;52.142;11.738;2022-10-01T13:34:23;24.00;58.40
67027;DHT22;53933;52.142;11.738;2022-10-01T13:36:51;24.00;58.50
67027;DHT22;53933;52.142;11.738;2022-10-01T13:39:23;24.00;58.50
67027;DHT22;53933;52.142;11.738;2022-10-01T13:41:55;24.00;58.50
67027;DHT22;53933;52.142;11.738;2022-10-01T13:44:26;24.00;58.60
67027;DHT22;53933;52.142;11.738;2022-10-01T13:47:01;24.00;58.60
67027;DHT22;53933;52.142;11.738;2022-10-01T13:49:31;24.00;59.40
67027;DHT22;53933;52.142;11.738;2022-10-01T13:51:59;24.00;58.60
67027;DHT22;53933;52.142;11.738;2022-10-01T13:54:35;24.00;58.70
67027;DHT22;53933;52.142;11.738;2022-10-01T13:57:08;24.00;58.80
67027;DHT22;53933;52.142;11.738;2022-10-01T13:59:36;24.00;58.70
67027;DHT22;53933;52.142;11.738;2022-10-01T14:02:22;24.00;58.70
67027;DHT22;53933;52.142;11.738;2022-10-01T14:04:53;24.00;58.70
67027;DHT22;53933;52.142;11.738;2022-10-01T14:07:24;24.00;58.80
67027;DHT22;53933;52.142;11.738;2022-10-01T14:09:57;24.00;58.80
67027;DHT22;53933;52.142;11.738;2022-10-01T14:12:29;24.00;59.40
67027;DHT22;53933;52.142;11.738;2022-10-01T14:15:16;24.00;58.70
67027;DHT22;53933;52.142;11.738;2022-10-01T14:18:03;24.00;58.70
67027;DHT22;53933;52.142;11.738;2022-10-01T14:20:36;24.00;58.70
67027;DHT22;53933;52.142;11.738;2022-10-01T14:23:12;24.00;58.70
67027;DHT22;53933;52.142;11.738;2022-10-01T14:25:46;24.00;58.80
67027;DHT22;53933;52.142;11.738;2022-10-01T14:31:11;24.10;58.80
67027;DHT22;53933;52.142;11.738;2022-10-01T14:33:58;24.10;58.70
67027;DHT22;53933;52.142;11.738;2022-10-01T14:36:31;24.20;58.60
67027;DHT22;53933;52.142;11.738;2022-10-01T14:39:03;24.30;58.60
67027;DHT22;53933;52.142;11.738;2022-10-01T14:41:33;24.30;58.20
67027;DHT22;53933;52.142;11.738;2022-10-01T14:44:00;24.40;57.90
67027;DHT22;53933;52.142;11.738;2022-10-01T14:46:27;24.40;58.00
67027;DHT22;53933;52.142;11.738;2022-10-01T14:48:57;24.40;58.10
67027;DHT22;53933;52.142;11.738;2022-10-01T14:51:27;24.30;58.10
67027;DHT22;53933;52.142;11.738;2022-10-01T14:53:56;24.30;58.20
67027;DHT22;53933;52.142;11.738;2022-10-01T14:56:24;24.30;58.20
67027;DHT22;53933;52.142;11.738;2022-10-01T14:58:54;24.30;58.20
67027;DHT22;53933;52.142;11.738;2022-10-01T15:01:23;24.30;58.30
67027;DHT22;53933;52.142;11.738;2022-10-01T15:03:50;24.20;58.30
67027;DHT22;53933;52.142;11.738;2022-10-01T15:06:19;24.20;58.30
67027;DHT22;53933;52.142;11.738;2022-10-01T15:08:48;24.20;58.40
67027;DHT22;53933;52.142;11.738;2022-10-01T15:11:17;24.20;58.40
67027;DHT22;53933;52.142;11.738;2022-10-01T15:13:47;24.20;58.40
67027;DHT22;53933;52.142;11.738;2022-10-01T15:16:16;24.20;58.50
67027;DHT22;53933;52.142;11.738;2022-10-01T15:18:45;24.20;58.60
67027;DHT22;53933;52.142;11.738;2022-10-01T15:21:17;24.20;58.50
67027;DHT22;53933;52.142;11.738;2022-10-01T15:23:45;24.20;58.60
67027;DHT22;53933;52.142;11.738;2022-10-01T15:26:19;24.20;58.60
67027;DHT22;53933;52.142;11.738;2022-10-01T15:28:47;24.20;58.60
67027;DHT22;53933;52.142;11.738;2022-10-01T15:31:15;24.20;58.70
67027;DHT22;53933;52.142;11.738;2022-10-01T15:33:44;24.10;58.60
67027;DHT22;53933;52.142;11.738;2022-10-01T15:36:14;24.10;58.80
67027;DHT22;53933;52.142;11.738;2022-10-01T15:38:42;24.10;58.80
67027;DHT22;53933;52.142;11.738;2022-10-01T15:41:20;24.10;58.80
67027;DHT22;53933;52.142;11.738;2022-10-01T15:43:47;24.00;58.90
67027;DHT22;53933;52.142;11.738;2022-10-01T15:46:18;24.00;58.90